Time;durP1;ratioP1;P1;durP2;ratioP2;P2;SDS_P1;SDS_P2;PMS_P1;PMS_P2;Temp;Humidity;BMP_temperature;BMP_pressure;BME280_temperature;BME280_humidity;BME280_pressure;Samples;Min_cycle;Max_cycle;Signal;HPM_P1;HPM_P2
2021/08/02 00:01:33;;;;;;;;;;;16.40;99.90;;;15.15;93.93;100888.00;3550337;39;102287;-40
2021/08/02 00:04:06;;;;;;;;;;;16.40;99.90;;;15.14;93.80;100880.84;3550362;39;104139;-40
2021/08/02 00:06:52;;;;;;;;;;;16.40;99.90;;;15.16;93.70;100892.44;3550646;39;102345;-40
2021/08/02 00:09:35;;;;;;;;;;;16.40;99.90;;;15.15;94.13;100877.00;3550436;39;102180;-40
2021/08/02 00:12:26;;;;;;;;;;;16.40;99.90;;;15.15;93.72;100888.81;3550361;39;102313;-40
2021/08/02 00:14:55;;;;;;;;;;;16.40;99.90;;;15.15;93.55;100883.34;3550570;39;104105;-40
2021/08/02 00:17:23;;;;;;;;;;;16.40;99.90;;;15.16;93.75;100884.19;3550592;39;102397;-40
2021/08/02 00:19:52;;;;;;;;;;;16.40;99.90;;;15.16;93.81;100876.75;3550600;39;102225;-40
2021/08/02 00:22:20;;;;;;;;;;;16.50;99.90;;;15.22;93.48;100883.22;3550278;39;102225;-40
2021/08/02 00:24:49;;;;;;;;;;;16.50;99.90;;;15.20;93.54;100893.59;3550215;39;103104;-40
2021/08/02 00:27:18;;;;;;;;;;;16.50;99.90;;;15.21;93.38;100889.78;3550422;39;102375;-40
2021/08/02 00:29:46;;;;;;;;;;;16.50;99.90;;;15.19;93.42;100894.69;3550319;39;104106;-40
2021/08/02 00:32:13;;;;;;;;;;;16.50;99.90;;;15.20;93.38;100907.34;3550131;39;103684;-41
2021/08/02 00:34:41;;;;;;;;;;;16.50;99.90;;;15.18;93.21;100904.81;3550069;39;102444;-40
2021/08/02 00:37:21;;;;;;;;;;;16.50;99.90;;;15.21;93.54;100900.78;3550270;39;102446;-40
2021/08/02 00:40:11;;;;;;;;;;;16.50;99.90;;;15.23;93.80;100896.69;3550315;39;103037;-40
2021/08/02 00:42:41;;;;;;;;;;;16.50;99.90;;;15.23;93.58;100895.88;3544661;39;102379;-40
2021/08/02 00:45:20;;;;;;;;;;;16.50;99.90;;;15.25;93.66;100890.97;3550352;39;103046;-40
2021/08/02 00:48:02;;;;;;;;;;;16.50;99.90;;;15.24;93.90;100905.78;3550242;39;102391;-40
2021/08/02 00:50:35;;;;;;;;;;;16.50;99.90;;;15.20;93.93;100902.66;3549230;39;103430;-40
2021/08/02 00:53:11;;;;;;;;;;;16.50;99.90;;;15.19;93.52;100897.44;3550057;39;102313;-41
2021/08/02 00:55:46;;;;;;;;;;;16.50;99.90;;;15.20;93.06;100904.59;3549125;39;102297;-42
2021/08/02 00:58:18;;;;;;;;;;;16.50;99.90;;;15.16;92.48;100908.91;3550421;39;102449;-40
2021/08/02 01:00:47;;;;;;;;;;;16.40;99.90;;;15.15;92.44;100894.31;3549071;39;105189;-40
2021/08/02 01:03:16;;;;;;;;;;;16.40;99.90;;;15.10;92.55;100895.03;3549079;39;102458;-40
2021/08/02 01:05:48;;;;;;;;;;;16.40;99.90;;;15.03;92.49;100890.78;3550481;39;102356;-40
2021/08/02 01:08:22;;;;;;;;;;;16.30;99.90;;;14.98;92.73;100898.88;3550116;39;102187;-40
2021/08/02 01:10:55;;;;;;;;;;;16.20;99.90;;;14.93;92.52;100905.09;3550443;39;102511;-39
2021/08/02 01:13:27;;;;;;;;;;;16.20;99.90;;;14.90;92.82;100906.41;3550127;39;102118;-40
2021/08/02 01:16:00;;;;;;;;;;;16.20;99.90;;;14.86;93.04;100907.16;3548985;39;102253;-40
2021/08/02 01:18:31;;;;;;;;;;;16.20;99.90;;;14.84;93.16;100910.13;3550024;39;102258;-40
2021/08/02 01:21:05;;;;;;;;;;;16.10;99.90;;;14.79;92.94;100905.34;3550231;39;103072;-40
2021/08/02 01:23:37;;;;;;;;;;;16.10;99.90;;;14.75;93.09;100898.66;3550029;39;102380;-40
2021/08/02 01:26:04;;;;;;;;;;;16.10;99.90;;;14.73;93.45;100900.81;3549721;39;104039;-39
2021/08/02 01:28:35;;;;;;;;;;;16.00;99.90;;;14.74;93.77;100902.47;3550050;39;102119;-39
2021/08/02 01:31:04;;;;;;;;;;;16.00;99.90;;;14.74;94.05;100901.66;3549904;39;102462;-40
2021/08/02 01:33:36;;;;;;;;;;;16.00;99.90;;;14.75;94.15;100897.84;3549249;39;102210;-41
2021/08/02 01:36:07;;;;;;;;;;;16.00;99.90;;;14.73;94.32;100892.56;3549894;39;102333;-39
2021/08/02 01:38:41;;;;;;;;;;;16.10;99.90;;;14.76;93.59;100897.59;3548854;39;102996;-40
2021/08/02 01:41:14;;;;;;;;;;;16.10;99.90;;;14.75;93.16;100903.31;3550247;39;103247;-40
2021/08/02 01:43:41;;;;;;;;;;;16.00;99.90;;;14.72;93.03;100907.38;3550199;39;102193;-40
2021/08/02 01:46:47;;;;;;;;;;;16.00;99.90;;;14.71;92.40;100905.69;3549594;39;104940;-39
2021/08/02 01:49:27;;;;;;;;;;;16.00;99.90;;;14.71;92.01;100908.44;3550089;39;102248;-42
2021/08/02 01:51:57;;;;;;;;;;;16.00;99.90;;;14.71;91.90;100905.69;3549015;39;102342;-40
2021/08/02 01:54:39;;;;;;;;;;;16.00;99.90;;;14.67;92.06;100919.03;3549950;39;102358;-40
2021/08/02 01:57:14;;;;;;;;;;;15.90;99.90;;;14.66;91.62;100913.78;3549712;39;104759;-40
2021/08/02 02:00:01;;;;;;;;;;;15.90;99.90;;;14.65;91.86;100918.44;3548848;39;102206;-40
2021/08/02 02:02:52;;;;;;;;;;;15.90;99.90;;;14.65;92.32;100912.13;3549964;39;102077;-43
2021/08/02 02:05:28;;;;;;;;;;;15.90;99.90;;;14.60;92.23;100915.56;3549446;39;102260;-40
2021/08/02 02:08:16;;;;;;;;;;;15.90;99.90;;;14.64;92.20;100910.44;3548898;39;103135;-40
2021/08/02 02:10:55;;;;;;;;;;;15.90;99.90;;;14.64;92.17;100921.44;3675977;22;102605;-40
2021/08/02 02:13:38;;;;;;;;;;;15.90;99.90;;;14.62;91.84;100918.91;3536820;39;102328;-40
2021/08/02 02:16:07;;;;;;;;;;;15.90;99.90;;;14.64;91.25;100921.44;3540173;39;102369;-40
2021/08/02 02:18:39;;;;;;;;;;;15.90;99.90;;;14.60;91.24;100925.72;3539874;39;102634;-40
2021/08/02 02:21:08;;;;;;;;;;;15.90;99.90;;;14.58;90.29;100922.34;3539659;39;102435;-40
2021/08/02 02:23:37;;;;;;;;;;;15.90;99.90;;;14.51;90.21;100925.25;3546988;39;103284;-40
2021/08/02 02:26:09;;;;;;;;;;;15.80;99.90;;;14.47;90.00;100933.09;3539450;39;102432;-40
2021/08/02 02:28:38;;;;;;;;;;;15.80;99.90;;;14.45;90.10;100927.00;3540331;39;102390;-40
2021/08/02 02:31:12;;;;;;;;;;;15.80;99.90;;;14.41;90.15;100914.84;3539951;39;103102;-40
2021/08/02 02:33:42;;;;;;;;;;;15.80;99.90;;;14.43;89.95;100934.66;3539618;39;102282;-40
2021/08/02 02:36:10;;;;;;;;;;;15.70;99.90;;;14.41;90.06;100934.06;3539631;39;102417;-40
2021/08/02 02:38:39;;;;;;;;;;;15.70;99.90;;;14.37;90.15;100936.41;3539871;39;104142;-40
2021/08/02 02:41:07;;;;;;;;;;;15.70;99.90;;;14.36;91.24;100932.00;3540936;39;102411;-40
2021/08/02 02:43:41;;;;;;;;;;;15.70;99.90;;;14.33;91.08;100921.50;3541237;39;103053;-40
2021/08/02 02:46:09;;;;;;;;;;;15.60;99.90;;;14.32;91.32;100918.97;3539726;39;102784;-40
2021/08/02 02:48:37;;;;;;;;;;;15.70;99.90;;;14.28;91.32;100915.03;3539815;39;103370;-40
2021/08/02 02:51:06;;;;;;;;;;;15.60;99.90;;;14.26;90.56;100922.66;3540686;39;102340;-40
2021/08/02 02:53:34;;;;;;;;;;;15.60;99.90;;;14.28;90.80;100915.88;3541315;39;103029;-41
2021/08/02 02:56:08;;;;;;;;;;;15.60;99.90;;;14.20;90.86;100914.31;3540867;39;102913;-40
2021/08/02 02:58:39;;;;;;;;;;;15.60;99.90;;;14.18;90.84;100918.34;3541179;39;103297;-40
2021/08/02 03:01:12;;;;;;;;;;;15.50;99.90;;;14.21;90.84;100928.88;3540599;39;104048;-40
2021/08/02 03:03:45;;;;;;;;;;;15.50;99.90;;;14.21;91.44;100915.97;3541126;39;102345;-40
2021/08/02 03:06:13;;;;;;;;;;;15.50;99.90;;;14.18;91.14;100921.94;3539912;39;102732;-40
2021/08/02 03:08:43;;;;;;;;;;;15.50;99.90;;;14.18;91.36;100926.56;3540792;39;104439;-40
2021/08/02 03:11:13;;;;;;;;;;;15.50;99.90;;;14.16;91.98;100931.47;3548057;39;104226;-40
2021/08/02 03:13:40;;;;;;;;;;;15.50;99.90;;;14.14;92.05;100931.72;3540917;39;103193;-40
2021/08/02 03:16:08;;;;;;;;;;;15.50;99.90;;;14.12;92.10;100928.38;3540884;39;102266;-40
2021/08/02 03:18:35;;;;;;;;;;;15.40;99.90;;;14.13;92.39;100923.72;3540893;39;102315;-40
2021/08/02 03:21:04;;;;;;;;;;;15.40;99.90;;;14.10;92.46;100922.28;3540957;39;102159;-40
2021/08/02 03:23:37;;;;;;;;;;;15.40;99.90;;;14.10;92.60;100925.03;3540490;39;103240;-40
2021/08/02 03:26:11;;;;;;;;;;;15.50;99.90;;;14.08;92.65;100921.69;3541420;39;102260;-40
2021/08/02 03:28:58;;;;;;;;;;;15.40;99.90;;;14.07;92.68;100925.50;3541243;39;102148;-40
2021/08/02 03:31:31;;;;;;;;;;;15.40;99.90;;;14.07;92.50;100928.25;3540922;39;102883;-40
2021/08/02 03:34:01;;;;;;;;;;;15.40;99.90;;;14.04;92.63;100931.41;3540988;39;103089;-39
2021/08/02 03:36:29;;;;;;;;;;;15.40;99.90;;;14.01;92.69;100935.47;3540652;39;102501;-40
2021/08/02 03:38:58;;;;;;;;;;;15.40;99.90;;;14.00;92.84;100930.22;3540388;39;103333;-40
2021/08/02 03:41:26;;;;;;;;;;;15.30;99.90;;;13.99;91.85;100934.03;3541015;39;102258;-40
2021/08/02 03:43:55;;;;;;;;;;;15.30;99.90;;;13.98;91.93;100929.63;3541144;39;103088;-39
2021/08/02 03:46:24;;;;;;;;;;;15.30;99.90;;;13.96;91.95;100932.59;3540326;39;102399;-40
2021/08/02 03:48:52;;;;;;;;;;;15.30;99.90;;;13.95;92.22;100929.03;3540333;39;103209;-41
2021/08/02 03:51:19;;;;;;;;;;;15.30;99.90;;;13.91;91.52;100930.56;3540618;39;102304;-40
2021/08/02 03:53:49;;;;;;;;;;;15.30;99.90;;;13.91;91.34;100935.19;3541009;39;103050;-40
2021/08/02 03:56:17;;;;;;;;;;;15.30;99.90;;;13.91;91.92;100947.00;3540792;39;102229;-40
2021/08/02 03:58:45;;;;;;;;;;;15.20;99.90;;;13.88;92.09;100936.50;3540742;39;102185;-41
2021/08/02 04:01:12;;;;;;;;;;;15.20;99.90;;;13.88;92.06;100946.63;3540511;39;103185;-40
2021/08/02 04:03:41;;;;;;;;;;;15.20;99.90;;;13.86;92.48;100941.38;3540801;39;102241;-40
2021/08/02 04:06:09;;;;;;;;;;;15.20;99.90;;;13.86;92.42;100955.09;3540750;39;103040;-40
2021/08/02 04:08:37;;;;;;;;;;;15.20;99.90;;;13.86;92.63;100957.84;3540819;39;102269;-40
2021/08/02 04:11:04;;;;;;;;;;;15.20;99.90;;;13.85;92.82;100956.16;3540435;39;102799;-40
2021/08/02 04:13:32;;;;;;;;;;;15.20;99.90;;;13.84;92.98;100961.88;3540776;39;103121;-40
2021/08/02 04:15:59;;;;;;;;;;;15.20;99.90;;;13.83;nan;100969.28;3540490;39;102728;-40
2021/08/02 04:18:26;;;;;;;;;;;15.10;99.90;;;13.81;93.16;100963.19;3540746;39;102266;-40
2021/08/02 04:20:55;;;;;;;;;;;15.10;99.90;;;13.78;93.05;100967.22;3540491;39;102072;-40
2021/08/02 04:23:23;;;;;;;;;;;15.10;99.90;;;13.77;92.56;100968.28;3540581;39;103331;-40
2021/08/02 04:25:50;;;;;;;;;;;15.10;99.90;;;13.78;93.02;100966.38;3539939;39;102417;-40
2021/08/02 04:28:18;;;;;;;;;;;15.10;99.90;;;13.79;92.73;100966.16;3540734;39;102269;-40
2021/08/02 04:30:45;;;;;;;;;;;15.10;99.90;;;13.81;92.55;100971.41;3540829;39;102233;-41
2021/08/02 04:33:12;;;;;;;;;;;15.10;99.90;;;13.81;93.08;100966.75;3540536;39;102306;-40
2021/08/02 04:35:41;;;;;;;;;;;15.10;99.90;;;13.84;93.10;100964.63;3540347;39;102109;-40
2021/08/02 04:38:08;;;;;;;;;;;15.10;99.90;;;13.84;93.23;100959.97;3540792;39;103190;-40
2021/08/02 04:40:36;;;;;;;;;;;15.20;99.90;;;13.85;93.10;100967.13;3540301;39;102716;-40
2021/08/02 04:43:03;;;;;;;;;;;15.20;99.90;;;13.84;93.02;100967.34;3540374;39;102170;-40
2021/08/02 04:45:31;;;;;;;;;;;15.20;99.90;;;13.84;93.01;100970.94;3540606;39;102124;-40
2021/08/02 04:47:58;;;;;;;;;;;15.20;99.90;;;13.83;93.39;100980.25;3540603;39;103105;-40
2021/08/02 04:50:25;;;;;;;;;;;15.10;99.90;;;13.84;93.16;100970.09;3547660;39;104997;-40
2021/08/02 04:52:53;;;;;;;;;;;15.10;99.90;;;13.85;92.94;100975.38;3540115;39;102251;-40
2021/08/02 04:55:20;;;;;;;;;;;15.20;99.90;;;13.85;92.65;100974.50;3540268;39;102097;-40
2021/08/02 04:57:47;;;;;;;;;;;15.20;99.90;;;13.86;92.76;100984.41;3540262;39;103826;-40
2021/08/02 05:00:15;;;;;;;;;;;15.20;99.90;;;13.85;93.10;100983.59;3540342;39;102321;-40
2021/08/02 05:02:42;;;;;;;;;;;15.10;99.90;;;13.88;93.07;100985.88;3539715;39;103084;-40
2021/08/02 05:05:10;;;;;;;;;;;15.20;99.90;;;13.89;93.52;100976.56;3540679;39;102306;-40
2021/08/02 05:07:38;;;;;;;;;;;15.20;99.90;;;13.94;93.86;100984.13;3540162;39;102375;-40
2021/08/02 05:10:06;;;;;;;;;;;15.20;99.90;;;13.97;94.00;100989.13;3540143;39;102808;-40
2021/08/02 05:12:33;;;;;;;;;;;15.20;99.90;;;13.99;93.92;100991.63;3540528;39;103165;-40
2021/08/02 05:15:11;;;;;;;;;;;15.30;99.90;;;14.01;93.81;100990.34;3540212;39;102314;-40
2021/08/02 05:17:39;;;;;;;;;;;15.30;99.90;;;14.06;92.46;100984.19;3540226;39;102155;-40
2021/08/02 05:20:07;;;;;;;;;;;15.40;99.90;;;14.08;91.73;100980.09;3540101;39;102800;-40
2021/08/02 05:22:34;;;;;;;;;;;15.40;99.90;;;14.14;91.96;100986.59;3540784;39;102225;-40
2021/08/02 05:25:03;;;;;;;;;;;15.40;99.90;;;14.17;92.55;100983.38;3540335;39;102724;-40
2021/08/02 05:27:30;;;;;;;;;;;15.40;99.90;;;14.23;92.36;100987.09;3540190;39;102456;-40
2021/08/02 05:29:58;;;;;;;;;;;15.40;99.90;;;14.30;91.97;100986.97;3539922;39;102426;-40
2021/08/02 05:32:25;;;;;;;;;;;15.50;99.90;;;14.33;90.70;100986.53;3540191;39;103207;-40
2021/08/02 05:34:52;;;;;;;;;;;15.60;99.90;;;14.42;90.29;100987.03;3539031;39;104638;-41
2021/08/02 05:37:19;;;;;;;;;;;15.60;99.90;;;14.50;90.23;100983.97;3540024;39;102197;-40
2021/08/02 05:39:47;;;;;;;;;;;15.70;99.90;;;14.54;89.13;100993.41;3540140;39;103521;-40
2021/08/02 05:42:14;;;;;;;;;;;15.70;99.90;;;14.53;88.73;100992.53;3540008;39;102325;-40
2021/08/02 05:44:41;;;;;;;;;;;15.80;99.90;;;14.64;87.99;101003.81;3539984;39;102287;-40
2021/08/02 05:47:11;;;;;;;;;;;15.80;99.90;;;14.66;87.23;100990.69;3540226;39;104413;-40
2021/08/02 05:49:39;;;;;;;;;;;15.80;99.90;;;14.71;87.03;100993.56;3540129;39;102897;-40
2021/08/02 05:52:06;;;;;;;;;;;15.90;99.90;;;14.78;86.75;101002.53;3540158;39;103019;-40
2021/08/02 05:54:34;;;;;;;;;;;16.00;99.90;;;14.86;86.42;101003.28;3540166;39;102494;-40
2021/08/02 05:57:02;;;;;;;;;;;16.00;99.90;;;14.89;84.33;101006.38;3539724;39;102329;-40
2021/08/02 05:59:29;;;;;;;;;;;16.10;99.90;;;14.95;84.46;101010.09;3539959;39;103021;-41
2021/08/02 06:01:58;;;;;;;;;;;16.10;99.90;;;15.01;84.84;101009.13;3540450;39;103038;-40
2021/08/02 06:04:26;;;;;;;;;;;16.20;99.90;;;15.04;85.27;101007.84;3539629;39;102471;-41
2021/08/02 06:06:54;;;;;;;;;;;16.20;99.90;;;15.06;85.48;101011.19;3539805;39;104030;-40
2021/08/02 06:09:22;;;;;;;;;;;16.20;99.90;;;15.04;84.90;101007.84;3539721;39;102355;-40
2021/08/02 06:11:50;;;;;;;;;;;16.20;99.90;;;15.12;84.34;101006.63;3539785;39;102983;-40
2021/08/02 06:14:17;;;;;;;;;;;16.20;99.90;;;15.12;82.88;101021.22;3540414;39;102382;-40
2021/08/02 06:16:44;;;;;;;;;;;16.30;99.90;;;15.16;83.86;101019.66;3541152;39;104254;-40
2021/08/02 06:19:11;;;;;;;;;;;16.30;99.90;;;15.17;83.76;101023.25;3540753;39;102372;-40
2021/08/02 06:21:39;;;;;;;;;;;16.30;99.90;;;15.20;82.41;101031.00;3541099;39;102215;-40
2021/08/02 06:24:06;;;;;;;;;;;16.30;99.90;;;15.17;80.62;101024.06;3540870;39;103419;-40
2021/08/02 06:26:34;;;;;;;;;;;16.30;99.90;;;15.22;80.86;101032.44;3540958;39;102252;-40
2021/08/02 06:29:01;;;;;;;;;;;16.40;99.90;;;15.28;81.07;101024.31;3541151;39;102368;-40
2021/08/02 06:31:29;;;;;;;;;;;16.40;99.90;;;15.24;77.27;101023.97;3540765;39;103247;-40
2021/08/02 06:33:56;;;;;;;;;;;16.40;99.90;;;15.31;79.09;101024.66;3541111;39;102892;-40
2021/08/02 06:36:23;;;;;;;;;;;16.40;99.90;;;15.39;81.22;101027.06;3540860;39;102261;-40
2021/08/02 06:38:51;;;;;;;;;;;16.50;99.90;;;15.42;80.87;101030.41;3541565;39;102379;-40
2021/08/02 06:41:18;;;;;;;;;;;16.50;99.90;;;15.43;81.29;101030.16;3541086;39;104025;-41
2021/08/02 06:43:45;;;;;;;;;;;16.60;99.90;;;15.46;81.37;101037.09;3541133;39;102361;-40
2021/08/02 06:46:13;;;;;;;;;;;16.60;99.90;;;15.42;80.36;101036.75;3540885;39;103965;-41
2021/08/02 06:48:40;;;;;;;;;;;16.60;99.90;;;15.48;79.39;101037.69;3541041;39;102486;-40
2021/08/02 06:51:10;;;;;;;;;;;16.60;99.90;;;15.58;80.61;101037.09;3541234;39;103378;-40
2021/08/02 06:53:38;;;;;;;;;;;16.70;99.90;;;15.66;80.54;101040.31;3541348;39;102283;-40
2021/08/02 06:56:06;;;;;;;;;;;16.70;99.90;;;15.76;79.40;101045.19;3540916;39;103086;-40
2021/08/02 06:58:34;;;;;;;;;;;16.80;99.90;;;15.87;78.01;101048.97;3541284;39;102297;-40
2021/08/02 07:01:01;;;;;;;;;;;16.90;99.90;;;15.98;77.12;101047.31;3540543;39;102284;-40
2021/08/02 07:03:28;;;;;;;;;;;16.90;99.90;;;16.04;78.36;101048.25;3540783;39;102212;-40
2021/08/02 07:05:56;;;;;;;;;;;17.10;99.90;;;16.13;77.22;101052.28;3540882;39;102324;-40
2021/08/02 07:08:23;;;;;;;;;;;17.10;99.90;;;16.19;76.65;101058.75;3540886;39;102176;-40
2021/08/02 07:10:50;;;;;;;;;;;17.20;99.90;;;16.24;74.32;101047.84;3540734;39;102563;-40
2021/08/02 07:13:17;;;;;;;;;;;17.30;99.90;;;16.22;74.93;101056.34;3540979;39;101688;-40
2021/08/02 07:15:45;;;;;;;;;;;17.30;99.90;;;16.29;75.30;101053.44;3540420;39;102332;-40
2021/08/02 07:18:12;;;;;;;;;;;17.30;99.90;;;16.39;73.83;101061.91;3541177;39;102354;-40
2021/08/02 07:20:40;;;;;;;;;;;17.40;99.90;;;16.59;75.22;101057.88;3541098;39;103098;-40
2021/08/02 07:23:07;;;;;;;;;;;17.50;99.90;;;16.73;73.00;101057.53;3541010;39;102212;-41
2021/08/02 07:25:34;;;;;;;;;;;17.70;99.90;;;16.77;73.56;101067.84;3541010;39;102962;-40
2021/08/02 07:28:02;;;;;;;;;;;17.80;99.90;;;16.84;71.51;101056.63;3540623;39;102389;-40
2021/08/02 07:30:29;;;;;;;;;;;17.80;99.90;;;17.01;71.75;101058.59;3540788;39;104097;-40
2021/08/02 07:32:56;;;;;;;;;;;17.90;99.90;;;17.18;71.30;101064.97;3541071;39;102422;-40
2021/08/02 07:35:23;;;;;;;;;;;18.00;99.90;;;17.26;69.61;101052.69;3540698;39;103565;-40
2021/08/02 07:37:51;;;;;;;;;;;18.10;99.90;;;17.36;69.78;101058.34;3540940;39;102403;-40
2021/08/02 07:40:18;;;;;;;;;;;18.30;99.90;;;17.34;68.54;101068.78;3540480;39;102261;-40
2021/08/02 07:42:45;;;;;;;;;;;18.30;99.90;;;17.33;70.37;101064.38;3541115;39;102159;-40
2021/08/02 07:45:13;;;;;;;;;;;18.30;99.90;;;17.35;66.66;101067.69;3540620;39;102466;-40
2021/08/02 07:47:40;;;;;;;;;;;18.30;99.90;;;17.42;67.52;101074.97;3540878;39;102194;-40
2021/08/02 07:50:11;;;;;;;;;;;18.40;99.90;;;17.54;68.08;101067.44;3540425;39;103258;-40
2021/08/02 07:52:39;;;;;;;;;;;18.40;99.90;;;17.63;67.44;101073.31;3540615;39;104299;-41
2021/08/02 07:55:07;;;;;;;;;;;18.50;99.90;;;17.79;69.08;101066.94;3540271;39;102279;-40
2021/08/02 07:57:35;;;;;;;;;;;18.70;99.90;;;17.89;65.22;101070.91;3541019;39;102053;-40
2021/08/02 08:00:05;;;;;;;;;;;18.70;99.90;;;17.98;68.19;101063.88;3540983;39;104139;-40
2021/08/02 08:02:35;;;;;;;;;;;18.80;99.90;;;18.00;65.55;101075.50;3540919;39;102200;-40
2021/08/02 08:05:04;;;;;;;;;;;18.90;99.90;;;17.94;67.31;101071.81;3540602;39;103250;-40
2021/08/02 08:07:52;;;;;;;;;;;18.90;99.90;;;17.77;65.17;101073.78;3540675;39;102099;-41
2021/08/02 08:10:22;;;;;;;;;;;18.90;99.90;;;17.70;68.93;101076.75;3676926;22;103058;-40
2021/08/02 08:12:50;;;;;;;;;;;18.70;99.90;;;17.60;66.69;101080.22;3550400;39;102298;-40
2021/08/02 08:15:20;;;;;;;;;;;18.60;99.90;;;17.49;68.01;101081.13;3550275;39;103059;-40
2021/08/02 08:17:47;;;;;;;;;;;18.50;99.90;;;17.38;68.67;101080.97;3550328;39;102208;-40
2021/08/02 08:20:17;;;;;;;;;;;18.50;99.90;;;17.21;69.81;101077.38;3550612;39;102437;-41
2021/08/02 08:22:45;;;;;;;;;;;18.30;99.90;;;16.87;68.35;101069.94;3550504;39;103121;-44
2021/08/02 08:25:13;;;;;;;;;;;18.20;99.90;;;16.86;70.28;101075.69;3550009;39;102194;-39
2021/08/02 08:27:40;;;;;;;;;;;18.00;99.90;;;16.74;69.39;101073.84;3550217;39;102370;-39
2021/08/02 08:30:09;;;;;;;;;;;18.00;99.90;;;16.80;74.45;101083.00;3550027;39;102485;-40
2021/08/02 08:32:37;;;;;;;;;;;17.90;99.90;;;16.79;72.17;101075.84;3550031;39;102362;-39
2021/08/02 08:35:06;;;;;;;;;;;17.90;99.90;;;16.82;74.51;101075.34;3550246;39;102267;-39
2021/08/02 08:37:33;;;;;;;;;;;17.90;99.90;;;16.80;74.35;101075.59;3549568;39;102440;-39
2021/08/02 08:40:00;;;;;;;;;;;17.90;99.90;;;16.82;74.16;101078.94;3550382;39;103338;-39
2021/08/02 08:42:28;;;;;;;;;;;17.80;99.90;;;16.85;74.25;101082.28;3550097;39;102429;-43
2021/08/02 08:44:56;;;;;;;;;;;17.90;99.90;;;16.82;74.43;101081.69;3550852;39;103292;-40
2021/08/02 08:47:25;;;;;;;;;;;17.80;99.90;;;16.81;73.41;101085.53;3550111;39;102146;-42
2021/08/02 08:49:52;;;;;;;;;;;17.80;99.90;;;16.73;72.13;101083.19;3550528;39;102269;-42
2021/08/02 08:52:20;;;;;;;;;;;17.80;99.90;;;16.75;73.29;101089.28;3550327;39;102257;-39
2021/08/02 08:54:47;;;;;;;;;;;17.90;99.90;;;16.71;71.48;101085.38;3550017;39;103231;-39
2021/08/02 08:57:15;;;;;;;;;;;17.80;99.90;;;16.69;73.78;101093.00;3550095;39;102254;-40
2021/08/02 08:59:46;;;;;;;;;;;17.70;99.90;;;16.74;73.64;101084.88;3550157;39;103209;-39
2021/08/02 09:02:14;;;;;;;;;;;17.70;99.90;;;16.79;69.44;101086.84;3550188;39;102359;-39
2021/08/02 09:04:51;;;;;;;;;;;17.70;99.90;;;16.82;71.16;101098.22;3549837;39;102209;-39
2021/08/02 09:07:18;;;;;;;;;;;17.70;99.90;;;16.94;71.61;101095.41;3550156;39;102342;-39
2021/08/02 09:09:46;;;;;;;;;;;17.80;99.90;;;17.05;69.40;101090.09;3550021;39;102851;-39
2021/08/02 09:12:16;;;;;;;;;;;17.90;99.90;;;17.15;67.20;101084.75;3550203;39;102177;-41
2021/08/02 09:14:53;;;;;;;;;;;18.00;99.90;;;17.34;67.67;101090.84;3550075;39;102337;-42
2021/08/02 09:17:29;;;;;;;;;;;18.10;99.90;;;17.55;66.53;101091.16;3550407;39;102167;-39
2021/08/02 09:19:58;;;;;;;;;;;18.30;99.90;;;17.68;65.95;101087.22;3550035;39;103216;-39
2021/08/02 09:22:34;;;;;;;;;;;18.40;99.90;;;17.80;63.49;101085.16;3550646;39;102294;-39
2021/08/02 09:25:15;;;;;;;;;;;18.60;99.90;;;17.93;64.81;101095.00;3549437;39;103060;-40
2021/08/02 09:27:43;;;;;;;;;;;18.70;99.90;;;18.02;64.08;101097.34;3550019;39;102378;-39
2021/08/02 09:30:14;;;;;;;;;;;18.80;99.90;;;18.14;63.24;101089.78;3550056;39;102839;-39
2021/08/02 09:32:45;;;;;;;;;;;19.00;99.90;;;18.25;63.90;101090.75;3550639;39;102925;-39
2021/08/02 09:35:13;;;;;;;;;;;19.10;99.90;;;18.43;65.36;101097.84;3550158;39;102355;-40
2021/08/02 09:37:40;;;;;;;;;;;19.20;99.90;;;18.37;59.55;101087.84;3550202;39;102477;-39
2021/08/02 09:40:08;;;;;;;;;;;19.20;99.90;;;18.43;57.25;101097.84;3549595;39;102416;-39
2021/08/02 09:42:35;;;;;;;;;;;19.30;99.90;;;18.48;59.56;101094.31;3549937;39;102329;-39
2021/08/02 09:45:27;;;;;;;;;;;19.30;99.90;;;18.49;59.74;101102.34;3550041;39;102366;-39
2021/08/02 09:47:54;;;;;;;;;;;19.40;99.90;;;18.60;61.17;101088.66;3550174;39;102223;-39
2021/08/02 09:50:26;;;;;;;;;;;19.40;99.90;;;18.55;59.98;101094.94;3549664;39;103260;-40
2021/08/02 09:52:54;;;;;;;;;;;19.40;99.90;;;18.47;57.86;101079.66;3549730;39;102337;-39
2021/08/02 09:55:22;;;;;;;;;;;19.50;99.90;;;18.63;57.60;101096.41;3549758;39;103389;-42
2021/08/02 09:57:53;;;;;;;;;;;19.50;99.90;;;18.80;57.58;101094.34;3550145;39;102366;-41
2021/08/02 10:00:39;;;;;;;;;;;19.60;99.90;;;18.83;58.06;101080.03;3549672;39;102326;-39
2021/08/02 10:03:06;;;;;;;;;;;19.70;99.90;;;19.07;56.98;101089.94;3550066;39;102236;-40
2021/08/02 10:05:37;;;;;;;;;;;19.80;99.90;;;19.35;59.15;101088.75;3549667;39;103042;-40
2021/08/02 10:08:17;;;;;;;;;;;20.00;99.90;;;19.50;58.18;101090.84;3550227;39;102118;-41
2021/08/02 10:10:44;;;;;;;;;;;20.20;99.90;;;19.57;55.44;101092.53;3550114;39;102803;-39
2021/08/02 10:13:22;;;;;;;;;;;20.30;99.90;;;19.52;57.73;101093.31;3549828;39;102973;-40
2021/08/02 10:15:55;;;;;;;;;;;20.30;99.90;;;19.55;54.92;101093.63;3549657;39;102325;-39
2021/08/02 10:18:24;;;;;;;;;;;20.30;99.90;;;19.55;56.43;101096.41;3549865;39;102811;-42
2021/08/02 10:21:04;;;;;;;;;;;20.40;99.90;;;19.46;57.30;101097.97;3549775;39;103174;-39
2021/08/02 10:23:31;;;;;;;;;;;20.30;99.90;;;19.43;59.23;101095.75;3549843;39;102309;-40
2021/08/02 10:25:59;;;;;;;;;;;20.20;99.90;;;19.51;58.04;101099.94;3549218;39;102306;-40
2021/08/02 10:28:27;;;;;;;;;;;20.30;99.90;;;19.50;57.15;101096.38;3549305;39;102328;-42
2021/08/02 10:31:06;;;;;;;;;;;20.30;99.90;;;19.45;56.74;101098.25;3549242;39;104057;-43
2021/08/02 10:33:35;;;;;;;;;;;20.30;99.90;;;19.42;59.80;101099.59;3549495;39;102353;-38
2021/08/02 10:36:14;;;;;;;;;;;20.20;99.90;;;19.45;58.02;101095.50;3549568;39;102233;-39
2021/08/02 10:38:44;;;;;;;;;;;20.20;99.90;;;19.38;54.78;101091.03;3549558;39;102460;-42
2021/08/02 10:41:23;;;;;;;;;;;20.20;99.90;;;19.49;57.28;101091.09;3549879;39;105171;-39
2021/08/02 10:43:51;;;;;;;;;;;20.20;99.90;;;19.66;58.62;101089.00;3549414;39;102350;-39
2021/08/02 10:46:20;;;;;;;;;;;20.40;99.90;;;19.74;53.10;101086.81;3549804;39;104278;-39
2021/08/02 10:48:50;;;;;;;;;;;20.50;99.90;;;19.73;50.87;101093.44;3549258;39;102706;-39
2021/08/02 10:51:20;;;;;;;;;;;20.60;99.90;;;19.58;53.97;101094.19;3549529;39;102163;-39
2021/08/02 10:54:03;;;;;;;;;;;20.50;99.90;;;19.75;56.25;101094.84;3549902;39;102507;-40
2021/08/02 10:56:32;;;;;;;;;;;20.50;99.90;;;19.82;55.18;101097.38;3549357;39;103135;-42
2021/08/02 10:59:00;;;;;;;;;;;20.50;99.90;;;19.89;52.03;101088.81;3549811;39;102354;-39
2021/08/02 11:01:27;;;;;;;;;;;20.70;99.90;;;19.93;51.65;101085.28;3549927;39;102167;-39
2021/08/02 11:03:57;;;;;;;;;;;20.70;99.90;;;20.05;49.86;101098.91;3551436;39;102077;-39
2021/08/02 11:06:32;;;;;;;;;;;20.80;99.90;;;19.86;50.98;101089.38;3551086;39;103123;-39
2021/08/02 11:08:59;;;;;;;;;;;20.80;99.90;;;20.07;53.39;101082.00;3550878;39;102390;-40
2021/08/02 11:11:43;;;;;;;;;;;20.80;99.90;;;20.14;53.05;101084.53;3551076;39;102393;-39
2021/08/02 11:14:17;;;;;;;;;;;20.90;99.90;;;20.31;52.78;101079.63;3550696;39;102454;-41
2021/08/02 11:17:02;;;;;;;;;;;21.00;99.90;;;20.44;52.80;101085.75;3551135;39;102275;-39